createdAt,value
2023-05-05T00:04:47.969Z,6.57
2023-05-05T00:09:51.632Z,7.73
2023-05-05T00:14:56.474Z,6.60
2023-05-05T00:19:59.795Z,6.37
2023-05-05T00:25:03.676Z,6.20
2023-05-05T00:30:09.626Z,7.65
2023-05-05T00:35:13.416Z,6.43
2023-05-05T00:40:18.501Z,5.17
2023-05-05T00:45:25.457Z,6.18
2023-05-05T00:50:30.322Z,6.55
2023-05-05T00:55:35.205Z,9.00
2023-05-05T01:00:40.439Z,5.93
2023-05-05T01:05:53.511Z,6.28
2023-05-05T01:11:09.091Z,8.13
2023-05-05T01:16:19.931Z,7.68
2023-05-05T01:21:31.426Z,7.50
2023-05-05T01:26:53.990Z,5.85
2023-05-05T01:32:02.584Z,7.93
2023-05-05T01:37:11.390Z,7.10
2023-05-05T01:42:15.493Z,6.10
2023-05-05T01:47:23.352Z,5.97
2023-05-05T01:52:30.816Z,5.43
2023-05-05T01:57:34.876Z,5.35
2023-05-05T02:02:41.948Z,7.80
2023-05-05T02:07:47.022Z,7.28
2023-05-05T02:12:51.906Z,6.37
2023-05-05T02:17:58.114Z,6.55
2023-05-05T02:23:01.777Z,6.47
2023-05-05T02:28:06.101Z,6.60
2023-05-05T02:33:14.814Z,9.90
2023-05-05T02:38:21.606Z,7.43
2023-05-05T02:43:28.198Z,6.70
2023-05-05T02:48:33.736Z,6.30
2023-05-05T02:53:39.506Z,6.28
2023-05-05T02:58:50.235Z,7.35
2023-05-05T03:04:01.510Z,8.05
2023-05-05T03:09:11.150Z,8.88
2023-05-05T03:14:19.984Z,9.25
2023-05-05T03:19:29.080Z,7.25
2023-05-05T03:24:36.969Z,9.03
2023-05-05T03:29:44.547Z,8.07
2023-05-05T03:34:52.535Z,10.65
2023-05-05T03:40:02.429Z,9.80
2023-05-05T03:45:08.136Z,7.30
2023-05-05T03:50:14.121Z,7.93
2023-05-05T03:55:21.093Z,8.00
2023-05-05T04:00:31.602Z,9.60
2023-05-05T04:05:42.067Z,8.13
2023-05-05T04:10:46.936Z,9.13
2023-05-05T04:15:51.436Z,9.50
2023-05-05T04:20:58.022Z,8.98
2023-05-05T04:26:03.165Z,9.37
2023-05-05T04:31:10.352Z,7.60
2023-05-05T04:36:19.861Z,9.53
2023-05-05T04:41:24.610Z,9.20
2023-05-05T04:46:28.279Z,9.88
2023-05-05T04:51:33.369Z,10.90
2023-05-05T04:56:37.261Z,8.35
2023-05-05T05:01:41.336Z,7.55
2023-05-05T05:06:46.628Z,8.30
2023-05-05T05:11:50.632Z,8.52
2023-05-05T05:16:54.183Z,7.18
2023-05-05T05:22:00.989Z,8.20
2023-05-05T05:27:09.665Z,6.90
2023-05-05T05:32:14.528Z,6.80
2023-05-05T05:37:20.095Z,6.93
2023-05-05T05:42:23.722Z,7.00
2023-05-05T05:47:28.146Z,6.33
2023-05-05T05:52:36.360Z,5.97
2023-05-05T05:57:42.448Z,6.78
2023-05-05T06:02:47.445Z,6.82
2023-05-05T06:07:56.471Z,7.30
2023-05-05T06:13:02.346Z,6.55
2023-05-05T06:18:07.736Z,6.30
2023-05-05T06:23:12.615Z,6.00
2023-05-05T06:28:20.928Z,6.78
2023-05-05T06:33:24.610Z,7.53
2023-05-05T06:38:29.634Z,7.93
2023-05-05T06:43:33.140Z,6.10
2023-05-05T06:48:40.100Z,7.35
2023-05-05T06:53:44.837Z,6.90
2023-05-05T06:58:48.221Z,6.63
2023-05-05T07:03:52.444Z,6.03
2023-05-05T07:08:58.016Z,7.68
2023-05-05T07:14:01.384Z,7.68
2023-05-05T07:19:06.535Z,6.83
2023-05-05T07:24:11.293Z,6.28
2023-05-05T07:29:14.996Z,7.40
2023-05-05T07:34:18.354Z,9.30
2023-05-05T07:39:23.200Z,6.70
2023-05-05T07:44:27.304Z,6.53
2023-05-05T07:49:30.740Z,6.90
2023-05-05T07:54:35.804Z,7.53
2023-05-05T07:59:43.357Z,6.15
2023-05-05T08:04:46.809Z,6.18
2023-05-05T08:09:52.550Z,7.30
2023-05-05T08:14:55.968Z,7.77
2023-05-05T08:19:59.293Z,7.53
2023-05-05T08:25:04.028Z,6.25
2023-05-05T08:30:09.041Z,5.70
2023-05-05T08:35:12.595Z,6.20
2023-05-05T08:40:17.514Z,7.30
2023-05-05T08:45:20.945Z,5.78
2023-05-05T08:50:28.159Z,5.97
2023-05-05T08:55:36.396Z,8.32
2023-05-05T09:00:42.713Z,7.10
2023-05-05T09:05:46.338Z,6.97
2023-05-05T09:10:54.195Z,6.68
2023-05-05T09:15:57.566Z,6.18
2023-05-05T09:21:00.873Z,6.63
2023-05-05T09:26:08.918Z,6.47
2023-05-05T09:31:16.357Z,6.20
2023-05-05T09:36:19.919Z,6.47
2023-05-05T09:41:38.238Z,6.97
2023-05-05T09:46:51.519Z,6.25
2023-05-05T09:51:55.298Z,8.60
2023-05-05T09:57:00.049Z,6.90
2023-05-05T10:02:12.933Z,6.82
2023-05-05T10:07:25.182Z,7.60
2023-05-05T10:12:32.471Z,6.80
2023-05-05T10:17:38.598Z,8.90
2023-05-05T10:22:46.823Z,7.03
2023-05-05T10:27:54.264Z,7.18
2023-05-05T10:33:22.303Z,8.35
2023-05-05T10:38:31.090Z,6.40
2023-05-05T10:43:36.701Z,7.82
2023-05-05T10:48:48.126Z,6.38
2023-05-05T10:53:58.158Z,7.25
2023-05-05T10:59:02.956Z,7.28
2023-05-05T11:04:22.799Z,7.78
2023-05-05T11:09:29.359Z,7.30
2023-05-05T11:14:34.305Z,8.35
2023-05-05T11:19:48.342Z,6.93
2023-05-05T11:24:51.708Z,7.60
2023-05-05T11:30:10.617Z,6.55
2023-05-05T11:35:14.869Z,7.80
2023-05-05T11:40:25.063Z,7.33
2023-05-05T11:45:30.743Z,7.25
2023-05-05T11:50:34.599Z,6.00
2023-05-05T11:55:37.913Z,7.00
2023-05-05T12:00:42.836Z,6.68
2023-05-05T12:05:47.571Z,7.25
2023-05-05T12:10:51.035Z,6.70
2023-05-05T12:15:56.006Z,6.93
2023-05-05T12:20:59.461Z,6.63
2023-05-05T12:26:02.891Z,6.40
2023-05-05T12:31:07.798Z,7.22
2023-05-05T12:36:12.392Z,5.30
2023-05-05T12:41:22.391Z,4.70
2023-05-05T12:46:29.759Z,5.18
2023-05-05T12:51:33.866Z,4.35
2023-05-05T12:56:40.715Z,5.50
2023-05-05T13:01:52.081Z,4.55
2023-05-05T13:07:11.306Z,4.32
2023-05-05T13:12:14.782Z,3.90
2023-05-05T13:17:19.548Z,4.30
2023-05-05T13:22:22.986Z,4.35
2023-05-05T13:27:26.468Z,4.35
2023-05-05T13:32:31.330Z,7.22
2023-05-05T13:37:34.701Z,4.97
2023-05-05T13:42:38.439Z,4.32
2023-05-05T13:47:44.576Z,4.43
2023-05-05T13:52:48.044Z,3.95
2023-05-05T13:57:51.748Z,3.80
2023-05-05T14:02:56.568Z,4.32
2023-05-05T14:08:00.211Z,2.88
2023-05-05T14:13:04.424Z,3.83
2023-05-05T14:18:09.760Z,4.57
2023-05-05T14:23:13.165Z,3.20
2023-05-05T14:28:16.618Z,4.07
2023-05-05T14:33:22.304Z,4.82
2023-05-05T14:38:25.783Z,7.60
